sensor_id;sensor_type;location;lat;lon;timestamp;P1;durP1;ratioP1;P2;durP2;ratioP2
35126;SDS011;21300;52.006;5.798;2023-08-31T00:01:08;3.45;;;2.45;;
35126;SDS011;21300;52.006;5.798;2023-08-31T00:03:54;3.58;;;2.55;;
35126;SDS011;21300;52.006;5.798;2023-08-31T00:06:41;2.90;;;2.38;;
35126;SDS011;21300;52.006;5.798;2023-08-31T00:09:30;3.63;;;2.50;;
35126;SDS011;21300;52.006;5.798;2023-08-31T00:12:16;2.97;;;2.40;;
35126;SDS011;21300;52.006;5.798;2023-08-31T00:15:02;3.50;;;2.42;;
35126;SDS011;21300;52.006;5.798;2023-08-31T00:17:49;5.65;;;2.45;;
35126;SDS011;21300;52.006;5.798;2023-08-31T00:20:35;3.78;;;2.72;;
35126;SDS011;21300;52.006;5.798;2023-08-31T00:23:21;4.63;;;2.50;;
35126;SDS011;21300;52.006;5.798;2023-08-31T00:26:07;5.00;;;3.08;;
35126;SDS011;21300;52.006;5.798;2023-08-31T00:28:54;4.80;;;2.20;;
35126;SDS011;21300;52.006;5.798;2023-08-31T00:31:40;5.35;;;2.72;;
35126;SDS011;21300;52.006;5.798;2023-08-31T00:34:27;4.60;;;2.75;;
35126;SDS011;21300;52.006;5.798;2023-08-31T00:37:13;5.15;;;2.60;;
35126;SDS011;21300;52.006;5.798;2023-08-31T00:39:59;5.00;;;2.63;;
35126;SDS011;21300;52.006;5.798;2023-08-31T00:42:45;4.15;;;2.78;;
35126;SDS011;21300;52.006;5.798;2023-08-31T00:45:31;6.53;;;2.85;;
35126;SDS011;21300;52.006;5.798;2023-08-31T00:48:17;4.38;;;3.08;;
35126;SDS011;21300;52.006;5.798;2023-08-31T00:51:03;6.53;;;3.03;;
35126;SDS011;21300;52.006;5.798;2023-08-31T00:53:52;8.50;;;3.13;;
35126;SDS011;21300;52.006;5.798;2023-08-31T00:56:40;7.18;;;3.50;;
35126;SDS011;21300;52.006;5.798;2023-08-31T00:59:26;4.95;;;3.05;;
35126;SDS011;21300;52.006;5.798;2023-08-31T01:02:22;7.03;;;3.78;;
35126;SDS011;21300;52.006;5.798;2023-08-31T01:08:35;7.05;;;3.90;;
35126;SDS011;21300;52.006;5.798;2023-08-31T01:11:29;7.05;;;4.50;;
35126;SDS011;21300;52.006;5.798;2023-08-31T01:14:31;6.60;;;4.40;;
35126;SDS011;21300;52.006;5.798;2023-08-31T01:17:52;6.35;;;4.22;;
35126;SDS011;21300;52.006;5.798;2023-08-31T01:20:49;9.90;;;4.65;;
35126;SDS011;21300;52.006;5.798;2023-08-31T01:24:07;6.65;;;4.65;;
35126;SDS011;21300;52.006;5.798;2023-08-31T01:26:54;7.55;;;4.78;;
35126;SDS011;21300;52.006;5.798;2023-08-31T01:29:40;6.40;;;5.03;;
35126;SDS011;21300;52.006;5.798;2023-08-31T01:32:26;10.23;;;5.72;;
35126;SDS011;21300;52.006;5.798;2023-08-31T01:35:12;6.57;;;5.43;;
35126;SDS011;21300;52.006;5.798;2023-08-31T01:38:01;9.93;;;6.50;;
35126;SDS011;21300;52.006;5.798;2023-08-31T01:40:58;10.57;;;7.20;;
35126;SDS011;21300;52.006;5.798;2023-08-31T01:43:48;9.45;;;6.90;;
35126;SDS011;21300;52.006;5.798;2023-08-31T01:46:37;13.18;;;8.20;;
35126;SDS011;21300;52.006;5.798;2023-08-31T01:49:23;10.85;;;8.15;;
35126;SDS011;21300;52.006;5.798;2023-08-31T01:52:09;12.68;;;8.77;;
35126;SDS011;21300;52.006;5.798;2023-08-31T01:54:55;10.98;;;8.98;;
35126;SDS011;21300;52.006;5.798;2023-08-31T01:57:41;12.18;;;9.38;;
35126;SDS011;21300;52.006;5.798;2023-08-31T02:00:27;11.75;;;9.10;;
35126;SDS011;21300;52.006;5.798;2023-08-31T02:03:13;10.95;;;9.75;;
35126;SDS011;21300;52.006;5.798;2023-08-31T02:05:59;11.55;;;9.32;;
35126;SDS011;21300;52.006;5.798;2023-08-31T02:08:45;20.85;;;10.05;;
35126;SDS011;21300;52.006;5.798;2023-08-31T02:11:32;14.25;;;9.68;;
35126;SDS011;21300;52.006;5.798;2023-08-31T02:14:23;10.80;;;8.00;;
35126;SDS011;21300;52.006;5.798;2023-08-31T02:17:09;12.65;;;10.18;;
35126;SDS011;21300;52.006;5.798;2023-08-31T02:19:55;12.75;;;8.75;;
35126;SDS011;21300;52.006;5.798;2023-08-31T02:22:41;13.68;;;10.68;;
35126;SDS011;21300;52.006;5.798;2023-08-31T02:25:27;12.77;;;9.35;;
35126;SDS011;21300;52.006;5.798;2023-08-31T02:28:13;13.27;;;9.88;;
35126;SDS011;21300;52.006;5.798;2023-08-31T02:31:00;11.63;;;9.77;;
35126;SDS011;21300;52.006;5.798;2023-08-31T02:33:47;12.45;;;10.32;;
35126;SDS011;21300;52.006;5.798;2023-08-31T02:36:35;12.73;;;9.68;;
35126;SDS011;21300;52.006;5.798;2023-08-31T02:39:21;14.82;;;11.25;;
35126;SDS011;21300;52.006;5.798;2023-08-31T02:42:06;12.70;;;10.63;;
35126;SDS011;21300;52.006;5.798;2023-08-31T02:44:53;13.80;;;10.43;;
35126;SDS011;21300;52.006;5.798;2023-08-31T02:47:39;14.57;;;9.63;;
35126;SDS011;21300;52.006;5.798;2023-08-31T02:50:25;12.73;;;10.10;;
35126;SDS011;21300;52.006;5.798;2023-08-31T02:53:11;15.60;;;10.10;;
35126;SDS011;21300;52.006;5.798;2023-08-31T02:55:57;14.00;;;8.68;;
35126;SDS011;21300;52.006;5.798;2023-08-31T02:58:43;11.27;;;7.97;;
35126;SDS011;21300;52.006;5.798;2023-08-31T03:01:28;13.63;;;9.18;;
35126;SDS011;21300;52.006;5.798;2023-08-31T03:04:14;11.73;;;9.55;;
35126;SDS011;21300;52.006;5.798;2023-08-31T03:07:00;11.57;;;9.55;;
35126;SDS011;21300;52.006;5.798;2023-08-31T03:09:49;12.52;;;9.52;;
35126;SDS011;21300;52.006;5.798;2023-08-31T03:12:36;12.85;;;9.23;;
35126;SDS011;21300;52.006;5.798;2023-08-31T03:15:22;12.45;;;9.00;;
35126;SDS011;21300;52.006;5.798;2023-08-31T03:18:08;14.35;;;9.90;;
35126;SDS011;21300;52.006;5.798;2023-08-31T03:20:54;13.15;;;9.77;;
35126;SDS011;21300;52.006;5.798;2023-08-31T03:23:41;13.88;;;9.90;;
35126;SDS011;21300;52.006;5.798;2023-08-31T03:26:26;12.88;;;9.68;;
35126;SDS011;21300;52.006;5.798;2023-08-31T03:29:12;12.82;;;9.88;;
35126;SDS011;21300;52.006;5.798;2023-08-31T03:31:59;14.60;;;10.32;;
35126;SDS011;21300;52.006;5.798;2023-08-31T03:34:46;14.02;;;10.32;;
35126;SDS011;21300;52.006;5.798;2023-08-31T03:37:32;14.32;;;10.25;;
35126;SDS011;21300;52.006;5.798;2023-08-31T03:40:19;14.88;;;10.32;;
35126;SDS011;21300;52.006;5.798;2023-08-31T03:43:05;10.73;;;8.80;;
35126;SDS011;21300;52.006;5.798;2023-08-31T03:45:54;13.75;;;9.50;;
35126;SDS011;21300;52.006;5.798;2023-08-31T03:48:43;13.25;;;10.50;;
35126;SDS011;21300;52.006;5.798;2023-08-31T03:51:28;13.68;;;10.25;;
35126;SDS011;21300;52.006;5.798;2023-08-31T03:54:14;13.73;;;10.70;;
35126;SDS011;21300;52.006;5.798;2023-08-31T03:57:00;13.13;;;10.32;;
35126;SDS011;21300;52.006;5.798;2023-08-31T03:59:46;12.90;;;10.15;;
35126;SDS011;21300;52.006;5.798;2023-08-31T04:02:32;14.23;;;10.90;;
35126;SDS011;21300;52.006;5.798;2023-08-31T04:05:18;12.07;;;10.10;;
35126;SDS011;21300;52.006;5.798;2023-08-31T04:08:04;12.48;;;10.85;;
35126;SDS011;21300;52.006;5.798;2023-08-31T04:10:51;13.80;;;10.80;;
35126;SDS011;21300;52.006;5.798;2023-08-31T04:13:36;14.30;;;10.95;;
35126;SDS011;21300;52.006;5.798;2023-08-31T04:16:22;14.75;;;11.38;;
35126;SDS011;21300;52.006;5.798;2023-08-31T04:19:08;19.15;;;11.10;;
35126;SDS011;21300;52.006;5.798;2023-08-31T04:21:54;13.60;;;11.30;;
35126;SDS011;21300;52.006;5.798;2023-08-31T04:24:40;12.63;;;11.23;;
35126;SDS011;21300;52.006;5.798;2023-08-31T04:27:26;15.98;;;11.52;;
35126;SDS011;21300;52.006;5.798;2023-08-31T04:30:13;15.68;;;10.40;;
35126;SDS011;21300;52.006;5.798;2023-08-31T04:32:58;12.90;;;11.02;;
35126;SDS011;21300;52.006;5.798;2023-08-31T04:35:44;14.60;;;11.50;;
35126;SDS011;21300;52.006;5.798;2023-08-31T04:38:31;15.90;;;10.82;;
35126;SDS011;21300;52.006;5.798;2023-08-31T04:41:17;16.40;;;10.77;;
35126;SDS011;21300;52.006;5.798;2023-08-31T04:44:03;17.40;;;11.38;;
35126;SDS011;21300;52.006;5.798;2023-08-31T04:46:49;12.15;;;10.85;;
35126;SDS011;21300;52.006;5.798;2023-08-31T04:49:35;14.60;;;11.38;;
35126;SDS011;21300;52.006;5.798;2023-08-31T04:52:21;14.15;;;11.27;;
35126;SDS011;21300;52.006;5.798;2023-08-31T04:55:07;15.55;;;11.15;;
35126;SDS011;21300;52.006;5.798;2023-08-31T04:57:53;16.52;;;11.23;;
35126;SDS011;21300;52.006;5.798;2023-08-31T05:00:39;14.13;;;11.52;;
35126;SDS011;21300;52.006;5.798;2023-08-31T05:03:25;11.95;;;10.30;;
35126;SDS011;21300;52.006;5.798;2023-08-31T05:06:11;14.57;;;9.63;;
35126;SDS011;21300;52.006;5.798;2023-08-31T05:08:56;15.52;;;10.00;;
35126;SDS011;21300;52.006;5.798;2023-08-31T05:11:42;16.05;;;11.82;;
35126;SDS011;21300;52.006;5.798;2023-08-31T05:17:33;14.75;;;11.68;;
35126;SDS011;21300;52.006;5.798;2023-08-31T05:20:19;19.75;;;11.85;;
35126;SDS011;21300;52.006;5.798;2023-08-31T05:23:07;16.08;;;12.02;;
35126;SDS011;21300;52.006;5.798;2023-08-31T05:25:53;17.33;;;12.43;;
35126;SDS011;21300;52.006;5.798;2023-08-31T05:28:41;15.50;;;12.10;;
35126;SDS011;21300;52.006;5.798;2023-08-31T05:31:28;15.38;;;12.23;;
35126;SDS011;21300;52.006;5.798;2023-08-31T05:34:20;18.10;;;12.50;;
35126;SDS011;21300;52.006;5.798;2023-08-31T05:37:06;16.45;;;13.73;;
35126;SDS011;21300;52.006;5.798;2023-08-31T05:39:52;17.20;;;14.05;;
35126;SDS011;21300;52.006;5.798;2023-08-31T05:42:38;17.67;;;13.55;;
35126;SDS011;21300;52.006;5.798;2023-08-31T05:45:24;16.42;;;12.75;;
35126;SDS011;21300;52.006;5.798;2023-08-31T05:48:10;19.95;;;13.75;;
35126;SDS011;21300;52.006;5.798;2023-08-31T05:50:56;17.58;;;13.73;;
35126;SDS011;21300;52.006;5.798;2023-08-31T05:53:42;17.08;;;13.77;;
35126;SDS011;21300;52.006;5.798;2023-08-31T05:56:28;16.85;;;13.80;;
35126;SDS011;21300;52.006;5.798;2023-08-31T05:59:14;18.48;;;14.30;;
35126;SDS011;21300;52.006;5.798;2023-08-31T06:02:00;16.75;;;11.70;;
35126;SDS011;21300;52.006;5.798;2023-08-31T06:04:45;13.90;;;12.30;;
35126;SDS011;21300;52.006;5.798;2023-08-31T06:07:31;18.15;;;13.48;;
35126;SDS011;21300;52.006;5.798;2023-08-31T06:10:20;20.63;;;13.60;;
35126;SDS011;21300;52.006;5.798;2023-08-31T06:13:08;14.43;;;12.88;;
35126;SDS011;21300;52.006;5.798;2023-08-31T06:15:54;16.40;;;12.32;;
35126;SDS011;21300;52.006;5.798;2023-08-31T06:18:41;15.65;;;12.40;;
35126;SDS011;21300;52.006;5.798;2023-08-31T06:21:28;16.60;;;12.07;;
35126;SDS011;21300;52.006;5.798;2023-08-31T06:24:14;19.90;;;13.45;;
35126;SDS011;21300;52.006;5.798;2023-08-31T06:27:00;17.50;;;14.45;;
35126;SDS011;21300;52.006;5.798;2023-08-31T06:29:46;17.65;;;14.88;;
35126;SDS011;21300;52.006;5.798;2023-08-31T06:32:32;18.98;;;15.57;;
35126;SDS011;21300;52.006;5.798;2023-08-31T06:35:18;18.33;;;14.75;;
35126;SDS011;21300;52.006;5.798;2023-08-31T06:38:05;17.10;;;13.75;;
35126;SDS011;21300;52.006;5.798;2023-08-31T06:40:50;18.55;;;15.15;;
35126;SDS011;21300;52.006;5.798;2023-08-31T06:43:38;17.00;;;14.68;;
35126;SDS011;21300;52.006;5.798;2023-08-31T06:46:24;18.08;;;14.63;;
35126;SDS011;21300;52.006;5.798;2023-08-31T06:49:10;19.77;;;14.50;;
35126;SDS011;21300;52.006;5.798;2023-08-31T06:51:56;16.83;;;14.02;;
35126;SDS011;21300;52.006;5.798;2023-08-31T06:54:42;15.32;;;13.00;;
35126;SDS011;21300;52.006;5.798;2023-08-31T06:57:28;21.60;;;14.38;;
35126;SDS011;21300;52.006;5.798;2023-08-31T07:00:14;19.98;;;14.93;;
35126;SDS011;21300;52.006;5.798;2023-08-31T07:03:00;17.90;;;14.55;;
35126;SDS011;21300;52.006;5.798;2023-08-31T07:05:46;17.73;;;14.82;;
35126;SDS011;21300;52.006;5.798;2023-08-31T07:08:32;18.88;;;14.75;;
35126;SDS011;21300;52.006;5.798;2023-08-31T07:11:17;16.55;;;13.85;;
35126;SDS011;21300;52.006;5.798;2023-08-31T07:14:03;16.63;;;13.90;;
35126;SDS011;21300;52.006;5.798;2023-08-31T07:16:49;17.88;;;15.07;;
35126;SDS011;21300;52.006;5.798;2023-08-31T07:19:36;17.88;;;13.75;;
35126;SDS011;21300;52.006;5.798;2023-08-31T07:22:22;17.90;;;12.90;;
35126;SDS011;21300;52.006;5.798;2023-08-31T07:25:08;13.45;;;11.20;;
35126;SDS011;21300;52.006;5.798;2023-08-31T07:27:54;17.60;;;10.57;;
35126;SDS011;21300;52.006;5.798;2023-08-31T07:30:40;11.95;;;9.48;;
35126;SDS011;21300;52.006;5.798;2023-08-31T07:33:26;13.85;;;9.43;;
35126;SDS011;21300;52.006;5.798;2023-08-31T07:36:11;13.35;;;10.32;;
35126;SDS011;21300;52.006;5.798;2023-08-31T07:38:57;12.73;;;9.88;;
35126;SDS011;21300;52.006;5.798;2023-08-31T07:41:43;14.95;;;10.05;;
35126;SDS011;21300;52.006;5.798;2023-08-31T07:44:29;16.88;;;10.75;;
35126;SDS011;21300;52.006;5.798;2023-08-31T07:47:15;14.52;;;10.68;;
35126;SDS011;21300;52.006;5.798;2023-08-31T07:50:01;15.30;;;9.98;;
35126;SDS011;21300;52.006;5.798;2023-08-31T07:52:47;16.83;;;10.30;;
35126;SDS011;21300;52.006;5.798;2023-08-31T07:55:33;15.25;;;10.68;;
35126;SDS011;21300;52.006;5.798;2023-08-31T07:58:21;12.38;;;10.20;;
35126;SDS011;21300;52.006;5.798;2023-08-31T08:01:07;14.85;;;9.48;;
35126;SDS011;21300;52.006;5.798;2023-08-31T08:03:53;15.38;;;10.50;;
35126;SDS011;21300;52.006;5.798;2023-08-31T08:06:39;15.77;;;10.50;;
35126;SDS011;21300;52.006;5.798;2023-08-31T08:09:25;13.45;;;10.68;;
35126;SDS011;21300;52.006;5.798;2023-08-31T08:12:11;14.80;;;12.38;;
35126;SDS011;21300;52.006;5.798;2023-08-31T08:14:56;17.48;;;12.55;;
35126;SDS011;21300;52.006;5.798;2023-08-31T08:17:42;17.02;;;12.45;;
35126;SDS011;21300;52.006;5.798;2023-08-31T08:20:28;16.98;;;12.45;;
35126;SDS011;21300;52.006;5.798;2023-08-31T08:23:14;20.58;;;14.15;;
35126;SDS011;21300;52.006;5.798;2023-08-31T08:26:00;19.40;;;14.77;;
35126;SDS011;21300;52.006;5.798;2023-08-31T08:28:46;19.98;;;15.55;;
35126;SDS011;21300;52.006;5.798;2023-08-31T08:31:32;18.83;;;14.30;;
35126;SDS011;21300;52.006;5.798;2023-08-31T08:34:17;22.13;;;14.80;;
35126;SDS011;21300;52.006;5.798;2023-08-31T08:37:03;22.73;;;15.10;;
35126;SDS011;21300;52.006;5.798;2023-08-31T08:39:49;21.13;;;15.52;;
35126;SDS011;21300;52.006;5.798;2023-08-31T08:42:40;22.02;;;15.27;;
35126;SDS011;21300;52.006;5.798;2023-08-31T08:45:30;18.55;;;13.35;;
35126;SDS011;21300;52.006;5.798;2023-08-31T08:48:22;20.33;;;14.50;;
35126;SDS011;21300;52.006;5.798;2023-08-31T08:51:09;20.27;;;15.35;;
35126;SDS011;21300;52.006;5.798;2023-08-31T08:53:56;18.88;;;13.60;;
35126;SDS011;21300;52.006;5.798;2023-08-31T08:56:44;18.70;;;14.23;;
35126;SDS011;21300;52.006;5.798;2023-08-31T08:59:31;17.30;;;13.75;;
35126;SDS011;21300;52.006;5.798;2023-08-31T09:02:17;22.30;;;14.30;;
35126;SDS011;21300;52.006;5.798;2023-08-31T09:05:03;17.23;;;12.32;;
35126;SDS011;21300;52.006;5.798;2023-08-31T09:08:02;20.48;;;13.93;;
35126;SDS011;21300;52.006;5.798;2023-08-31T09:10:57;16.33;;;13.57;;
35126;SDS011;21300;52.006;5.798;2023-08-31T09:13:43;23.17;;;14.82;;
35126;SDS011;21300;52.006;5.798;2023-08-31T09:16:29;16.33;;;11.57;;
35126;SDS011;21300;52.006;5.798;2023-08-31T09:22:05;16.27;;;10.75;;
35126;SDS011;21300;52.006;5.798;2023-08-31T09:24:51;17.30;;;11.00;;
35126;SDS011;21300;52.006;5.798;2023-08-31T09:27:37;15.25;;;9.60;;
35126;SDS011;21300;52.006;5.798;2023-08-31T09:30:24;14.15;;;8.52;;
35126;SDS011;21300;52.006;5.798;2023-08-31T09:33:12;12.40;;;8.32;;
35126;SDS011;21300;52.006;5.798;2023-08-31T09:36:01;17.13;;;7.40;;
35126;SDS011;21300;52.006;5.798;2023-08-31T09:38:50;13.85;;;6.38;;
35126;SDS011;21300;52.006;5.798;2023-08-31T09:41:36;8.13;;;5.30;;
35126;SDS011;21300;52.006;5.798;2023-08-31T09:44:39;8.07;;;5.38;;
35126;SDS011;21300;52.006;5.798;2023-08-31T09:47:28;11.27;;;5.18;;
35126;SDS011;21300;52.006;5.798;2023-08-31T09:50:14;8.98;;;5.47;;
35126;SDS011;21300;52.006;5.798;2023-08-31T09:53:01;11.77;;;5.35;;
35126;SDS011;21300;52.006;5.798;2023-08-31T09:55:49;9.27;;;4.63;;
35126;SDS011;21300;52.006;5.798;2023-08-31T09:58:36;11.10;;;5.20;;
35126;SDS011;21300;52.006;5.798;2023-08-31T10:01:22;9.18;;;4.70;;
35126;SDS011;21300;52.006;5.798;2023-08-31T10:04:08;8.85;;;4.93;;
35126;SDS011;21300;52.006;5.798;2023-08-31T10:06:54;6.40;;;4.82;;
35126;SDS011;21300;52.006;5.798;2023-08-31T10:09:40;8.85;;;5.30;;
35126;SDS011;21300;52.006;5.798;2023-08-31T10:12:26;10.63;;;5.88;;
35126;SDS011;21300;52.006;5.798;2023-08-31T10:15:13;7.32;;;5.28;;
35126;SDS011;21300;52.006;5.798;2023-08-31T10:18:00;8.52;;;5.30;;
35126;SDS011;21300;52.006;5.798;2023-08-31T10:20:48;11.10;;;5.75;;
35126;SDS011;21300;52.006;5.798;2023-08-31T10:23:34;9.57;;;4.68;;
35126;SDS011;21300;52.006;5.798;2023-08-31T10:29:25;6.03;;;4.65;;
35126;SDS011;21300;52.006;5.798;2023-08-31T10:32:19;8.38;;;4.70;;
35126;SDS011;21300;52.006;5.798;2023-08-31T10:35:09;6.55;;;4.30;;
35126;SDS011;21300;52.006;5.798;2023-08-31T10:38:12;5.85;;;3.97;;
35126;SDS011;21300;52.006;5.798;2023-08-31T10:43:58;4.25;;;2.00;;
35126;SDS011;21300;52.006;5.798;2023-08-31T10:46:44;5.85;;;2.25;;
35126;SDS011;21300;52.006;5.798;2023-08-31T10:49:30;2.15;;;1.23;;
35126;SDS011;21300;52.006;5.798;2023-08-31T10:52:18;3.92;;;1.35;;
35126;SDS011;21300;52.006;5.798;2023-08-31T10:55:05;4.32;;;1.30;;
35126;SDS011;21300;52.006;5.798;2023-08-31T10:57:51;4.45;;;1.38;;
35126;SDS011;21300;52.006;5.798;2023-08-31T11:00:46;5.30;;;1.75;;
35126;SDS011;21300;52.006;5.798;2023-08-31T11:03:57;4.03;;;1.05;;
35126;SDS011;21300;52.006;5.798;2023-08-31T11:06:43;5.82;;;1.15;;
35126;SDS011;21300;52.006;5.798;2023-08-31T11:09:29;4.05;;;0.95;;
35126;SDS011;21300;52.006;5.798;2023-08-31T11:12:16;3.60;;;0.95;;
35126;SDS011;21300;52.006;5.798;2023-08-31T11:15:02;7.35;;;1.15;;
35126;SDS011;21300;52.006;5.798;2023-08-31T11:17:50;2.75;;;1.10;;
35126;SDS011;21300;52.006;5.798;2023-08-31T11:20:36;3.92;;;0.80;;
35126;SDS011;21300;52.006;5.798;2023-08-31T11:23:23;5.78;;;1.05;;
35126;SDS011;21300;52.006;5.798;2023-08-31T11:26:09;2.90;;;1.00;;
35126;SDS011;21300;52.006;5.798;2023-08-31T11:28:58;2.67;;;0.85;;
35126;SDS011;21300;52.006;5.798;2023-08-31T11:31:44;4.15;;;1.10;;
35126;SDS011;21300;52.006;5.798;2023-08-31T11:34:29;3.92;;;1.00;;
35126;SDS011;21300;52.006;5.798;2023-08-31T11:37:15;4.63;;;0.93;;
35126;SDS011;21300;52.006;5.798;2023-08-31T11:40:02;2.95;;;0.80;;
35126;SDS011;21300;52.006;5.798;2023-08-31T11:42:50;4.25;;;0.98;;
35126;SDS011;21300;52.006;5.798;2023-08-31T11:45:37;4.18;;;1.00;;
35126;SDS011;21300;52.006;5.798;2023-08-31T11:48:24;3.35;;;0.90;;
35126;SDS011;21300;52.006;5.798;2023-08-31T11:51:10;4.28;;;0.90;;
35126;SDS011;21300;52.006;5.798;2023-08-31T11:53:57;3.28;;;0.85;;
35126;SDS011;21300;52.006;5.798;2023-08-31T11:56:45;2.00;;;0.80;;
35126;SDS011;21300;52.006;5.798;2023-08-31T11:59:34;2.58;;;0.80;;
35126;SDS011;21300;52.006;5.798;2023-08-31T12:02:24;5.20;;;0.88;;
35126;SDS011;21300;52.006;5.798;2023-08-31T12:05:09;4.70;;;1.10;;
35126;SDS011;21300;52.006;5.798;2023-08-31T12:07:55;2.08;;;0.60;;
35126;SDS011;21300;52.006;5.798;2023-08-31T12:10:42;4.03;;;0.80;;
35126;SDS011;21300;52.006;5.798;2023-08-31T12:13:28;2.85;;;0.80;;
35126;SDS011;21300;52.006;5.798;2023-08-31T12:16:14;2.88;;;0.80;;
35126;SDS011;21300;52.006;5.798;2023-08-31T12:19:04;3.72;;;0.80;;
35126;SDS011;21300;52.006;5.798;2023-08-31T12:21:50;1.85;;;0.60;;
35126;SDS011;21300;52.006;5.798;2023-08-31T12:24:36;2.38;;;0.70;;
35126;SDS011;21300;52.006;5.798;2023-08-31T12:27:24;3.90;;;0.73;;
35126;SDS011;21300;52.006;5.798;2023-08-31T12:30:10;3.42;;;0.85;;
35126;SDS011;21300;52.006;5.798;2023-08-31T12:32:56;1.73;;;0.80;;
35126;SDS011;21300;52.006;5.798;2023-08-31T12:35:48;3.45;;;0.82;;
35126;SDS011;21300;52.006;5.798;2023-08-31T12:38:34;1.85;;;0.80;;
35126;SDS011;21300;52.006;5.798;2023-08-31T12:41:20;2.50;;;0.60;;
35126;SDS011;21300;52.006;5.798;2023-08-31T12:44:06;2.85;;;0.73;;
35126;SDS011;21300;52.006;5.798;2023-08-31T12:46:52;5.00;;;1.08;;
35126;SDS011;21300;52.006;5.798;2023-08-31T12:49:39;1.70;;;0.70;;
35126;SDS011;21300;52.006;5.798;2023-08-31T12:52:25;2.65;;;0.90;;
35126;SDS011;21300;52.006;5.798;2023-08-31T12:55:14;3.40;;;0.70;;
35126;SDS011;21300;52.006;5.798;2023-08-31T12:58:00;2.13;;;0.63;;
35126;SDS011;21300;52.006;5.798;2023-08-31T13:00:46;3.22;;;0.80;;
35126;SDS011;21300;52.006;5.798;2023-08-31T13:03:34;2.97;;;0.98;;
35126;SDS011;21300;52.006;5.798;2023-08-31T13:06:20;7.03;;;1.00;;
35126;SDS011;21300;52.006;5.798;2023-08-31T13:09:06;1.73;;;0.80;;
35126;SDS011;21300;52.006;5.798;2023-08-31T13:11:54;1.70;;;0.80;;
35126;SDS011;21300;52.006;5.798;2023-08-31T13:14:39;2.97;;;1.02;;
35126;SDS011;21300;52.006;5.798;2023-08-31T13:17:26;6.13;;;0.70;;
35126;SDS011;21300;52.006;5.798;2023-08-31T13:20:12;3.20;;;0.90;;
35126;SDS011;21300;52.006;5.798;2023-08-31T13:22:58;2.22;;;0.85;;
35126;SDS011;21300;52.006;5.798;2023-08-31T13:25:44;1.95;;;0.63;;
35126;SDS011;21300;52.006;5.798;2023-08-31T13:28:30;4.43;;;1.10;;
35126;SDS011;21300;52.006;5.798;2023-08-31T13:31:16;3.63;;;0.88;;
35126;SDS011;21300;52.006;5.798;2023-08-31T13:34:01;3.90;;;1.08;;
35126;SDS011;21300;52.006;5.798;2023-08-31T13:36:48;2.72;;;0.95;;
35126;SDS011;21300;52.006;5.798;2023-08-31T13:39:35;5.38;;;0.93;;
35126;SDS011;21300;52.006;5.798;2023-08-31T13:42:22;2.05;;;0.90;;
35126;SDS011;21300;52.006;5.798;2023-08-31T13:45:08;4.35;;;1.00;;
35126;SDS011;21300;52.006;5.798;2023-08-31T13:47:54;3.47;;;0.88;;
35126;SDS011;21300;52.006;5.798;2023-08-31T13:50:40;3.83;;;0.95;;
35126;SDS011;21300;52.006;5.798;2023-08-31T13:53:26;2.88;;;0.90;;
35126;SDS011;21300;52.006;5.798;2023-08-31T13:56:12;4.80;;;1.17;;
35126;SDS011;21300;52.006;5.798;2023-08-31T13:58:58;3.17;;;0.85;;
35126;SDS011;21300;52.006;5.798;2023-08-31T14:01:44;5.47;;;0.90;;
35126;SDS011;21300;52.006;5.798;2023-08-31T14:04:30;4.30;;;0.75;;
35126;SDS011;21300;52.006;5.798;2023-08-31T14:07:16;3.22;;;0.80;;
35126;SDS011;21300;52.006;5.798;2023-08-31T14:10:02;5.22;;;0.88;;
35126;SDS011;21300;52.006;5.798;2023-08-31T14:12:51;4.25;;;1.08;;
35126;SDS011;21300;52.006;5.798;2023-08-31T14:15:37;3.38;;;1.25;;
35126;SDS011;21300;52.006;5.798;2023-08-31T14:18:31;2.95;;;0.80;;
35126;SDS011;21300;52.006;5.798;2023-08-31T14:21:17;6.60;;;1.23;;
35126;SDS011;21300;52.006;5.798;2023-08-31T14:24:03;3.88;;;0.98;;
35126;SDS011;21300;52.006;5.798;2023-08-31T14:26:49;3.33;;;0.90;;
35126;SDS011;21300;52.006;5.798;2023-08-31T14:29:36;3.45;;;1.00;;
35126;SDS011;21300;52.006;5.798;2023-08-31T14:32:22;4.03;;;0.90;;
35126;SDS011;21300;52.006;5.798;2023-08-31T14:35:08;4.35;;;1.10;;
35126;SDS011;21300;52.006;5.798;2023-08-31T14:37:55;2.88;;;1.00;;
35126;SDS011;21300;52.006;5.798;2023-08-31T14:40:42;6.25;;;1.10;;
35126;SDS011;21300;52.006;5.798;2023-08-31T14:43:28;3.53;;;0.90;;
35126;SDS011;21300;52.006;5.798;2023-08-31T14:46:13;3.63;;;0.80;;
35126;SDS011;21300;52.006;5.798;2023-08-31T14:48:59;5.85;;;1.23;;
35126;SDS011;21300;52.006;5.798;2023-08-31T14:51:45;3.35;;;1.00;;
35126;SDS011;21300;52.006;5.798;2023-08-31T14:54:31;2.42;;;0.70;;
35126;SDS011;21300;52.006;5.798;2023-08-31T14:57:18;4.30;;;0.82;;
35126;SDS011;21300;52.006;5.798;2023-08-31T15:00:05;4.78;;;1.25;;
35126;SDS011;21300;52.006;5.798;2023-08-31T15:02:52;3.85;;;1.10;;
35126;SDS011;21300;52.006;5.798;2023-08-31T15:05:38;5.22;;;1.20;;
35126;SDS011;21300;52.006;5.798;2023-08-31T15:08:39;4.55;;;1.00;;
35126;SDS011;21300;52.006;5.798;2023-08-31T15:11:28;3.60;;;0.90;;
35126;SDS011;21300;52.006;5.798;2023-08-31T15:14:14;5.18;;;1.15;;
35126;SDS011;21300;52.006;5.798;2023-08-31T15:17:00;3.92;;;0.90;;
35126;SDS011;21300;52.006;5.798;2023-08-31T15:19:46;3.13;;;1.02;;
35126;SDS011;21300;52.006;5.798;2023-08-31T15:22:32;4.40;;;0.90;;
35126;SDS011;21300;52.006;5.798;2023-08-31T15:25:18;3.97;;;1.10;;
35126;SDS011;21300;52.006;5.798;2023-08-31T15:28:04;2.97;;;0.90;;
35126;SDS011;21300;52.006;5.798;2023-08-31T15:30:50;3.38;;;1.02;;
35126;SDS011;21300;52.006;5.798;2023-08-31T15:33:37;5.45;;;0.93;;
35126;SDS011;21300;52.006;5.798;2023-08-31T15:36:22;2.72;;;0.95;;
35126;SDS011;21300;52.006;5.798;2023-08-31T15:39:08;2.88;;;1.02;;
35126;SDS011;21300;52.006;5.798;2023-08-31T15:41:57;4.88;;;1.00;;
35126;SDS011;21300;52.006;5.798;2023-08-31T15:44:43;4.07;;;0.93;;
35126;SDS011;21300;52.006;5.798;2023-08-31T15:47:29;5.03;;;1.00;;
35126;SDS011;21300;52.006;5.798;2023-08-31T15:50:15;2.70;;;1.05;;
35126;SDS011;21300;52.006;5.798;2023-08-31T15:53:01;3.92;;;1.10;;
35126;SDS011;21300;52.006;5.798;2023-08-31T15:55:48;5.20;;;1.00;;
35126;SDS011;21300;52.006;5.798;2023-08-31T15:58:34;4.28;;;1.10;;
35126;SDS011;21300;52.006;5.798;2023-08-31T16:01:20;2.33;;;0.77;;
35126;SDS011;21300;52.006;5.798;2023-08-31T16:04:06;4.40;;;1.20;;
35126;SDS011;21300;52.006;5.798;2023-08-31T16:06:52;4.05;;;1.23;;
35126;SDS011;21300;52.006;5.798;2023-08-31T16:09:38;3.05;;;0.80;;
35126;SDS011;21300;52.006;5.798;2023-08-31T16:12:24;5.07;;;1.10;;
35126;SDS011;21300;52.006;5.798;2023-08-31T16:15:13;2.65;;;0.85;;
35126;SDS011;21300;52.006;5.798;2023-08-31T16:17:58;2.67;;;1.00;;
35126;SDS011;21300;52.006;5.798;2023-08-31T16:20:44;5.30;;;1.25;;
35126;SDS011;21300;52.006;5.798;2023-08-31T16:23:33;4.30;;;0.93;;
35126;SDS011;21300;52.006;5.798;2023-08-31T16:26:19;5.57;;;1.20;;
35126;SDS011;21300;52.006;5.798;2023-08-31T16:29:05;5.20;;;1.33;;
35126;SDS011;21300;52.006;5.798;2023-08-31T16:31:54;4.00;;;0.80;;
35126;SDS011;21300;52.006;5.798;2023-08-31T16:34:40;3.63;;;1.10;;
35126;SDS011;21300;52.006;5.798;2023-08-31T16:37:26;6.68;;;1.10;;
35126;SDS011;21300;52.006;5.798;2023-08-31T16:40:12;3.40;;;0.90;;
35126;SDS011;21300;52.006;5.798;2023-08-31T16:42:59;4.25;;;1.02;;
35126;SDS011;21300;52.006;5.798;2023-08-31T16:45:45;3.80;;;1.13;;
35126;SDS011;21300;52.006;5.798;2023-08-31T16:48:30;6.50;;;1.30;;